createdAt,value
2023-03-02T00:00:16.257Z,9.97
2023-03-02T00:02:22.353Z,11.77
2023-03-02T00:04:32.050Z,11.87
2023-03-02T00:06:36.128Z,10.53
2023-03-02T00:08:38.592Z,10.97
2023-03-02T00:10:40.267Z,8.83
2023-03-02T00:12:42.443Z,10.70
2023-03-02T00:14:44.480Z,10.50
2023-03-02T00:16:46.199Z,10.17
2023-03-02T00:18:47.931Z,9.83
2023-03-02T00:20:49.605Z,9.77
2023-03-02T00:23:03.540Z,10.50
2023-03-02T00:25:06.488Z,11.47
2023-03-02T00:27:12.993Z,10.73
2023-03-02T00:29:15.071Z,12.00
2023-03-02T00:31:16.956Z,11.90
2023-03-02T00:33:21.119Z,10.23
2023-03-02T00:35:22.796Z,14.00
2023-03-02T00:37:26.681Z,10.67
2023-03-02T00:39:31.729Z,10.97
2023-03-02T00:41:35.415Z,10.57
2023-03-02T00:43:37.098Z,11.30
2023-03-02T00:45:39.013Z,13.13
2023-03-02T00:47:41.659Z,10.77
2023-03-02T00:49:48.941Z,12.60
2023-03-02T00:51:50.863Z,10.73
2023-03-02T00:53:52.603Z,11.00
2023-03-02T00:55:55.246Z,11.77
2023-03-02T00:57:58.045Z,10.77
2023-03-02T01:00:04.939Z,12.47
2023-03-02T01:02:11.314Z,11.30
2023-03-02T01:04:13.145Z,11.87
2023-03-02T01:06:20.149Z,10.00
2023-03-02T01:08:27.412Z,12.03
2023-03-02T01:10:31.162Z,11.87
2023-03-02T01:12:33.231Z,11.80
2023-03-02T01:14:36.703Z,14.57
2023-03-02T01:16:38.531Z,11.13
2023-03-02T01:18:40.687Z,12.20
2023-03-02T01:20:45.724Z,12.73
2023-03-02T01:22:47.645Z,11.23
2023-03-02T01:24:50.049Z,11.67
2023-03-02T01:26:52.065Z,12.73
2023-03-02T01:28:55.549Z,10.97
2023-03-02T01:30:57.364Z,12.07
2023-03-02T01:32:59.168Z,12.47
2023-03-02T01:35:01.092Z,12.93
2023-03-02T01:37:02.818Z,12.33
2023-03-02T01:39:15.750Z,13.13
2023-03-02T01:41:17.933Z,13.97
2023-03-02T01:43:20.191Z,11.67
2023-03-02T01:45:48.883Z,11.80
2023-03-02T01:47:55.086Z,12.67
2023-03-02T01:50:03.843Z,13.20
2023-03-02T01:52:12.148Z,12.03
2023-03-02T01:54:22.847Z,12.90
2023-03-02T01:56:32.493Z,12.20
2023-03-02T01:58:37.912Z,12.77
2023-03-02T02:00:40.540Z,11.33
2023-03-02T02:02:42.695Z,12.10
2023-03-02T02:04:47.543Z,13.77
2023-03-02T02:06:59.807Z,11.60
2023-03-02T02:09:07.522Z,10.27
2023-03-02T02:11:10.803Z,10.40
2023-03-02T02:13:12.512Z,10.57
2023-03-02T02:15:14.236Z,11.77
2023-03-02T02:17:18.241Z,10.37
2023-03-02T02:19:44.403Z,11.57
2023-03-02T02:21:46.391Z,12.03
2023-03-02T02:23:59.028Z,10.83
2023-03-02T02:26:03.468Z,12.20
2023-03-02T02:28:10.303Z,10.57
2023-03-02T02:30:14.644Z,12.37
2023-03-02T02:32:21.716Z,11.77
2023-03-02T02:34:35.539Z,12.50
2023-03-02T02:36:44.951Z,13.67
2023-03-02T02:38:54.116Z,12.47
2023-03-02T02:40:59.388Z,12.53
2023-03-02T02:43:06.332Z,12.27
2023-03-02T02:45:19.327Z,13.07
2023-03-02T02:47:22.010Z,13.17
2023-03-02T02:49:35.189Z,14.27
2023-03-02T02:51:37.279Z,12.00
2023-03-02T02:53:52.139Z,12.60
2023-03-02T02:55:58.086Z,14.30
2023-03-02T02:58:02.297Z,13.20
2023-03-02T03:00:07.658Z,13.63
2023-03-02T03:02:23.773Z,13.07
2023-03-02T03:04:31.321Z,11.83
2023-03-02T03:06:41.947Z,14.33
2023-03-02T03:08:50.298Z,14.43
2023-03-02T03:10:58.743Z,14.13
2023-03-02T03:13:01.332Z,13.33
2023-03-02T03:15:04.441Z,14.40
2023-03-02T03:17:11.949Z,14.17
2023-03-02T03:19:29.643Z,14.93
2023-03-02T03:21:33.562Z,14.67
2023-03-02T03:23:38.209Z,14.87
2023-03-02T03:25:41.904Z,13.20
2023-03-02T03:27:44.508Z,16.03
2023-03-02T03:29:48.325Z,14.37
2023-03-02T03:31:53.602Z,13.37
2023-03-02T03:33:56.607Z,13.73
2023-03-02T03:36:02.593Z,14.53
2023-03-02T03:38:06.353Z,14.63
2023-03-02T03:40:10.185Z,15.93
2023-03-02T03:42:18.015Z,15.13
2023-03-02T03:44:20.524Z,13.83
2023-03-02T03:46:23.207Z,13.70
2023-03-02T03:48:25.776Z,13.83
2023-03-02T03:50:31.582Z,15.37
2023-03-02T03:52:33.632Z,12.57
2023-03-02T03:54:59.919Z,13.50
2023-03-02T03:57:06.269Z,12.90
2023-03-02T03:59:11.014Z,13.70
2023-03-02T04:01:19.981Z,14.40
2023-03-02T04:03:22.735Z,12.57
2023-03-02T04:05:24.912Z,15.40
2023-03-02T04:07:28.393Z,14.20
2023-03-02T04:09:37.647Z,13.70
2023-03-02T04:11:44.509Z,15.43
2023-03-02T04:13:46.775Z,15.50
2023-03-02T04:15:48.558Z,15.07
2023-03-02T04:17:50.900Z,13.77
2023-03-02T04:19:55.047Z,13.63
2023-03-02T04:21:58.376Z,14.10
2023-03-02T04:24:00.211Z,15.00
2023-03-02T04:26:05.113Z,16.70
2023-03-02T04:28:10.187Z,13.60
2023-03-02T04:30:15.886Z,14.73
2023-03-02T04:32:17.644Z,14.03
2023-03-02T04:34:25.583Z,12.60
2023-03-02T04:36:27.631Z,14.93
2023-03-02T04:38:29.591Z,15.00
2023-03-02T04:40:31.903Z,13.40
2023-03-02T04:42:33.600Z,13.23
2023-03-02T04:44:37.653Z,12.90
2023-03-02T04:46:39.982Z,14.33
2023-03-02T04:48:41.828Z,14.10
2023-03-02T04:50:43.651Z,16.80
2023-03-02T04:52:45.623Z,13.87
2023-03-02T04:54:47.684Z,13.30
2023-03-02T04:56:53.545Z,13.07
2023-03-02T04:58:55.985Z,12.23
2023-03-02T05:01:02.075Z,12.60
2023-03-02T05:03:04.644Z,12.80
2023-03-02T05:05:07.577Z,13.00
2023-03-02T05:07:09.302Z,15.37
2023-03-02T05:09:11.335Z,15.53
2023-03-02T05:11:22.392Z,14.77
2023-03-02T05:13:27.856Z,13.13
2023-03-02T05:15:35.691Z,13.63
2023-03-02T05:17:37.399Z,14.13
2023-03-02T05:19:39.174Z,14.63
2023-03-02T05:21:42.082Z,15.83
2023-03-02T05:23:44.533Z,14.37
2023-03-02T05:25:48.912Z,15.33
2023-03-02T05:27:50.982Z,15.47
2023-03-02T05:29:54.773Z,14.90
2023-03-02T05:31:56.716Z,13.87
2023-03-02T05:33:58.534Z,13.83
2023-03-02T05:36:01.150Z,14.33
2023-03-02T05:38:03.023Z,13.83
2023-03-02T05:40:06.558Z,14.90
2023-03-02T05:42:09.554Z,15.13
2023-03-02T05:44:13.812Z,14.37
2023-03-02T05:46:17.145Z,15.40
2023-03-02T05:48:21.252Z,14.17
2023-03-02T05:50:23.410Z,14.67
2023-03-02T05:52:28.365Z,14.30
2023-03-02T05:54:30.093Z,15.30
2023-03-02T05:56:32.126Z,15.80
2023-03-02T05:58:34.024Z,14.13
2023-03-02T06:00:35.943Z,12.40
2023-03-02T06:02:40.745Z,16.80
2023-03-02T06:04:47.210Z,13.13
2023-03-02T06:06:48.923Z,16.57
2023-03-02T06:08:50.927Z,12.77
2023-03-02T06:10:57.758Z,12.97
2023-03-02T06:12:59.635Z,13.07
2023-03-02T06:15:01.551Z,14.50
2023-03-02T06:17:03.518Z,13.87
2023-03-02T06:19:05.387Z,13.23
2023-03-02T06:21:07.522Z,13.57
2023-03-02T06:23:09.342Z,13.60
2023-03-02T06:25:16.672Z,15.67
2023-03-02T06:27:18.428Z,15.40
2023-03-02T06:29:23.040Z,14.73
2023-03-02T06:31:27.990Z,12.87
2023-03-02T06:33:30.592Z,14.37
2023-03-02T06:35:33.854Z,14.53
2023-03-02T06:37:35.715Z,13.87
2023-03-02T06:39:39.612Z,13.10
2023-03-02T06:41:45.808Z,14.53
2023-03-02T06:43:47.503Z,13.93
2023-03-02T06:45:51.021Z,16.70
2023-03-02T06:47:52.848Z,14.23
2023-03-02T06:49:54.674Z,14.37
2023-03-02T06:51:56.403Z,15.77
2023-03-02T06:53:58.167Z,15.73
2023-03-02T06:56:02.313Z,14.43
2023-03-02T06:58:03.980Z,13.37
2023-03-02T07:00:13.967Z,12.10
2023-03-02T07:02:15.626Z,15.80
2023-03-02T07:04:18.616Z,13.03
2023-03-02T07:06:20.507Z,12.33
2023-03-02T07:08:22.478Z,12.77
2023-03-02T07:10:24.241Z,12.57
2023-03-02T07:12:26.040Z,14.37
2023-03-02T07:14:27.803Z,14.77
2023-03-02T07:16:33.809Z,13.43
2023-03-02T07:18:38.100Z,14.43
2023-03-02T07:20:39.885Z,14.20
2023-03-02T07:22:44.787Z,14.87
2023-03-02T07:24:46.441Z,13.57
2023-03-02T07:26:48.388Z,13.23
2023-03-02T07:28:50.033Z,12.43
2023-03-02T07:30:53.173Z,14.80
2023-03-02T07:32:57.180Z,14.30
2023-03-02T07:34:58.865Z,13.73
2023-03-02T07:37:00.516Z,13.90
2023-03-02T07:39:04.346Z,14.07
2023-03-02T07:41:10.324Z,13.43
2023-03-02T07:43:11.981Z,15.67
2023-03-02T07:45:13.810Z,13.33
2023-03-02T07:47:15.500Z,12.07
2023-03-02T07:49:17.443Z,15.43
2023-03-02T07:51:19.191Z,15.23
2023-03-02T07:53:20.899Z,12.93
2023-03-02T07:55:25.150Z,17.37
2023-03-02T07:57:26.827Z,14.70
2023-03-02T07:59:29.317Z,14.50
2023-03-02T08:01:31.348Z,13.47
2023-03-02T08:03:33.453Z,13.73
2023-03-02T08:05:35.170Z,14.47
2023-03-02T08:07:36.937Z,13.27
2023-03-02T08:09:40.200Z,12.53
2023-03-02T08:11:42.014Z,14.03
2023-03-02T08:13:44.305Z,13.33
2023-03-02T08:15:46.143Z,15.23
2023-03-02T08:17:49.330Z,13.17
2023-03-02T08:19:51.069Z,14.40
2023-03-02T08:21:52.861Z,13.60
2023-03-02T08:23:54.642Z,14.23
2023-03-02T08:25:56.351Z,14.53
2023-03-02T08:27:58.032Z,14.57
2023-03-02T08:30:00.447Z,14.90
2023-03-02T08:32:02.256Z,12.30
2023-03-02T08:34:04.048Z,14.37
2023-03-02T08:36:13.221Z,14.33
2023-03-02T08:38:14.917Z,13.40
2023-03-02T08:40:16.672Z,14.30
2023-03-02T08:42:18.379Z,15.13
2023-03-02T08:44:23.472Z,14.67
2023-03-02T08:46:32.612Z,13.40
2023-03-02T08:48:34.537Z,14.53
2023-03-02T08:50:36.248Z,11.90
2023-03-02T08:52:37.999Z,13.50
2023-03-02T08:54:40.629Z,12.70
2023-03-02T08:56:44.331Z,15.27
2023-03-02T08:58:46.838Z,13.67
2023-03-02T09:00:48.946Z,12.53
2023-03-02T09:02:55.197Z,13.60
2023-03-02T09:04:58.486Z,12.57
2023-03-02T09:07:00.274Z,14.00
2023-03-02T09:09:02.281Z,14.57
2023-03-02T09:11:06.869Z,14.90
2023-03-02T09:13:08.815Z,12.50
2023-03-02T09:15:10.702Z,16.30
2023-03-02T09:17:15.684Z,13.63
2023-03-02T09:19:17.487Z,13.17
2023-03-02T09:21:19.291Z,13.73
2023-03-02T09:23:21.000Z,13.03
2023-03-02T09:25:25.294Z,13.40
2023-03-02T09:27:26.994Z,15.40
2023-03-02T09:29:28.935Z,13.13
2023-03-02T09:31:30.839Z,15.33
2023-03-02T09:33:33.307Z,13.33
2023-03-02T09:35:34.971Z,14.00
2023-03-02T09:37:39.022Z,13.47
2023-03-02T09:39:40.868Z,11.73
2023-03-02T09:42:00.308Z,12.63
2023-03-02T09:44:31.870Z,12.80
2023-03-02T09:46:47.412Z,15.10
2023-03-02T09:49:16.149Z,12.67
2023-03-02T09:51:31.641Z,12.23
2023-03-02T09:53:51.523Z,14.33
2023-03-02T09:56:00.311Z,12.17
2023-03-02T09:58:06.788Z,14.60
2023-03-02T10:00:27.899Z,14.30
2023-03-02T10:02:44.078Z,13.80
2023-03-02T10:04:53.165Z,13.53
2023-03-02T10:07:11.031Z,14.07
2023-03-02T10:09:15.323Z,12.67
2023-03-02T10:11:21.391Z,17.27
2023-03-02T10:13:33.741Z,15.70
2023-03-02T10:15:51.823Z,12.60
2023-03-02T10:18:21.164Z,15.17
2023-03-02T10:20:34.604Z,13.67
2023-03-02T10:22:41.699Z,14.97
2023-03-02T10:24:50.324Z,14.03
2023-03-02T10:26:59.046Z,15.03
2023-03-02T10:29:16.644Z,14.60
2023-03-02T10:31:33.689Z,13.77
2023-03-02T10:33:39.355Z,15.07
2023-03-02T10:35:47.548Z,14.13
2023-03-02T10:37:57.019Z,13.33
2023-03-02T10:39:59.060Z,14.03
2023-03-02T10:42:04.720Z,13.70
2023-03-02T10:44:24.561Z,15.17
2023-03-02T10:46:28.668Z,17.43
2023-03-02T10:48:31.896Z,14.50
2023-03-02T10:50:34.068Z,11.37
2023-03-02T10:52:35.872Z,14.50
2023-03-02T10:54:37.629Z,14.60
2023-03-02T10:56:43.187Z,13.37
2023-03-02T10:58:45.777Z,13.40
2023-03-02T11:01:06.013Z,13.80
2023-03-02T11:03:22.156Z,12.63
2023-03-02T11:05:29.412Z,13.47
2023-03-02T11:07:31.127Z,12.53
2023-03-02T11:09:34.016Z,14.20
2023-03-02T11:11:36.841Z,13.13
2023-03-02T11:13:43.834Z,12.63
2023-03-02T11:15:52.964Z,13.47
2023-03-02T11:18:25.672Z,12.87
2023-03-02T11:20:38.560Z,12.27
2023-03-02T11:23:18.846Z,12.40
2023-03-02T11:25:31.416Z,12.23
2023-03-02T11:27:36.465Z,12.63
2023-03-02T11:29:48.902Z,13.00
2023-03-02T11:32:01.360Z,13.73
2023-03-02T11:34:22.421Z,13.20
2023-03-02T11:36:48.499Z,14.17
2023-03-02T11:38:56.610Z,13.00
2023-03-02T11:41:13.592Z,12.27
2023-03-02T11:43:17.585Z,12.63
2023-03-02T11:45:23.752Z,12.37
2023-03-02T11:47:25.552Z,11.63
2023-03-02T11:49:58.787Z,12.93
2023-03-02T11:52:01.055Z,12.97
2023-03-02T11:54:19.207Z,13.40
2023-03-02T11:56:21.345Z,14.23
2023-03-02T11:58:26.731Z,12.50
2023-03-02T12:00:39.889Z,12.37
2023-03-02T12:02:41.667Z,13.83
2023-03-02T12:04:43.402Z,12.80
2023-03-02T12:06:46.125Z,12.60
2023-03-02T12:08:50.360Z,13.57
2023-03-02T12:10:57.989Z,13.90
2023-03-02T12:13:16.612Z,11.07
2023-03-02T12:15:29.767Z,12.40
2023-03-02T12:17:34.909Z,12.60
2023-03-02T12:19:44.928Z,12.27
2023-03-02T12:22:05.588Z,13.90
2023-03-02T12:24:32.153Z,11.07
2023-03-02T12:26:37.255Z,12.20
2023-03-02T12:28:39.946Z,12.13
2023-03-02T12:30:41.659Z,12.07
2023-03-02T12:33:21.551Z,11.37
2023-03-02T12:35:24.959Z,11.57
2023-03-02T12:37:31.664Z,10.60
2023-03-02T12:40:15.771Z,12.27
2023-03-02T12:42:42.204Z,12.17
2023-03-02T12:44:51.221Z,10.83
2023-03-02T12:46:54.043Z,10.73
2023-03-02T12:49:14.590Z,11.50
2023-03-02T12:51:25.244Z,12.77
2023-03-02T12:53:27.409Z,12.73
2023-03-02T12:55:30.066Z,12.20
2023-03-02T12:57:32.490Z,11.70
2023-03-02T12:59:35.814Z,11.20
2023-03-02T13:01:37.490Z,11.70
2023-03-02T13:03:46.138Z,10.20
2023-03-02T13:05:48.013Z,10.50
2023-03-02T13:08:03.060Z,11.07
2023-03-02T13:10:20.348Z,11.50
2023-03-02T13:12:22.290Z,12.73
2023-03-02T13:14:28.415Z,10.17
2023-03-02T13:16:33.642Z,13.50
2023-03-02T13:18:39.338Z,11.70
2023-03-02T13:20:41.476Z,11.93
2023-03-02T13:22:45.803Z,11.90
2023-03-02T13:25:02.005Z,10.90
2023-03-02T13:27:15.306Z,10.80
2023-03-02T13:29:20.489Z,10.50
2023-03-02T13:31:25.271Z,12.37
2023-03-02T13:33:29.056Z,10.87
2023-03-02T13:35:33.406Z,12.67
2023-03-02T13:37:45.921Z,13.40
2023-03-02T13:40:04.768Z,12.13
2023-03-02T13:42:08.728Z,12.97
2023-03-02T13:44:26.094Z,10.97
2023-03-02T13:46:36.526Z,11.33
2023-03-02T13:48:40.730Z,12.00
2023-03-02T13:50:52.924Z,11.43
2023-03-02T13:53:05.297Z,12.87
2023-03-02T13:55:14.470Z,12.23
2023-03-02T13:57:29.749Z,13.00
2023-03-02T13:59:37.415Z,11.03
2023-03-02T14:01:41.318Z,11.07
2023-03-02T14:03:42.988Z,11.77
2023-03-02T14:05:44.728Z,12.10
2023-03-02T14:07:49.029Z,12.30
2023-03-02T14:09:50.735Z,11.90
2023-03-02T14:11:54.800Z,12.37
2023-03-02T14:13:56.564Z,11.00
2023-03-02T14:15:58.332Z,10.50
2023-03-02T14:18:00.687Z,11.33
2023-03-02T14:20:02.500Z,14.47
2023-03-02T14:22:04.309Z,12.37
2023-03-02T14:24:06.796Z,10.93
2023-03-02T14:26:45.230Z,12.20
2023-03-02T14:28:51.111Z,11.93
2023-03-02T14:30:59.966Z,10.63
2023-03-02T14:33:01.672Z,11.17
2023-03-02T14:35:08.309Z,9.97
2023-03-02T14:37:20.082Z,10.60
2023-03-02T14:39:26.467Z,10.47
2023-03-02T14:41:43.932Z,10.47
2023-03-02T14:43:55.772Z,10.13
2023-03-02T14:45:57.455Z,12.90
2023-03-02T14:48:09.167Z,10.17
2023-03-02T14:50:12.534Z,13.17
2023-03-02T14:52:26.899Z,10.30
2023-03-02T14:54:36.525Z,11.10
2023-03-02T14:56:38.351Z,11.07
2023-03-02T14:58:40.111Z,12.10
2023-03-02T15:00:45.150Z,15.33
2023-03-02T15:02:49.105Z,10.20
2023-03-02T15:04:56.765Z,10.87
2023-03-02T15:06:58.764Z,10.60
2023-03-02T15:09:01.220Z,12.70
2023-03-02T15:11:02.879Z,9.60
2023-03-02T15:13:06.720Z,10.37
2023-03-02T15:15:09.481Z,9.50
2023-03-02T15:17:11.277Z,10.67
2023-03-02T15:19:12.971Z,9.23
2023-03-02T15:21:21.472Z,10.30
2023-03-02T15:23:23.167Z,11.33
2023-03-02T15:25:26.040Z,11.00
2023-03-02T15:27:30.178Z,12.07
2023-03-02T15:29:31.972Z,11.53
2023-03-02T15:31:34.041Z,10.50
2023-03-02T15:33:37.506Z,12.07
2023-03-02T15:35:40.771Z,11.47
2023-03-02T15:37:42.535Z,10.00
2023-03-02T15:39:44.506Z,10.97
2023-03-02T15:41:46.485Z,10.27
2023-03-02T15:43:52.447Z,11.27
2023-03-02T15:45:58.817Z,10.10
2023-03-02T15:48:00.645Z,11.03
2023-03-02T15:50:02.343Z,11.77
2023-03-02T15:52:04.260Z,10.47
2023-03-02T15:54:08.120Z,11.10
2023-03-02T15:56:14.904Z,11.63
2023-03-02T15:58:17.803Z,12.07
2023-03-02T16:00:20.300Z,10.93
2023-03-02T16:02:21.976Z,11.67
2023-03-02T16:04:24.669Z,10.73
2023-03-02T16:06:27.780Z,11.40
2023-03-02T16:08:32.387Z,8.97
2023-03-02T16:10:35.888Z,12.10
2023-03-02T16:12:39.874Z,15.27
2023-03-02T16:14:43.659Z,11.13
2023-03-02T16:16:46.252Z,9.70
2023-03-02T16:18:52.616Z,9.27
2023-03-02T16:20:59.237Z,12.03
2023-03-02T16:23:02.432Z,9.60
2023-03-02T16:25:04.442Z,12.33
2023-03-02T16:27:06.259Z,10.40
2023-03-02T16:29:08.111Z,9.43
2023-03-02T16:31:12.984Z,13.00
2023-03-02T16:33:18.855Z,11.23
2023-03-02T16:35:20.651Z,9.87
2023-03-02T16:37:25.008Z,9.63
2023-03-02T16:39:26.797Z,10.03
2023-03-02T16:41:28.708Z,9.47
2023-03-02T16:43:32.953Z,9.80
2023-03-02T16:45:35.533Z,10.10
2023-03-02T16:47:38.934Z,10.93
2023-03-02T16:49:40.622Z,12.23
2023-03-02T16:51:42.974Z,13.43
2023-03-02T16:53:50.055Z,11.40
2023-03-02T16:55:51.781Z,10.33
2023-03-02T16:57:53.560Z,8.63
2023-03-02T16:59:55.245Z,9.40
2023-03-02T17:01:59.093Z,9.90
2023-03-02T17:04:03.206Z,11.47
2023-03-02T17:06:07.675Z,10.83
2023-03-02T17:08:13.490Z,9.17
2023-03-02T17:10:20.126Z,10.40
2023-03-02T17:12:21.873Z,9.77
2023-03-02T17:14:23.626Z,11.40
2023-03-02T17:16:25.655Z,8.83
2023-03-02T17:18:28.069Z,7.83
2023-03-02T17:20:29.985Z,9.60
2023-03-02T17:22:31.837Z,7.87
2023-03-02T17:24:33.646Z,9.97
2023-03-02T17:26:37.584Z,8.50
2023-03-02T17:28:43.448Z,9.27
2023-03-02T17:30:45.444Z,9.53
2023-03-02T17:32:48.401Z,7.60
2023-03-02T17:34:52.448Z,7.47
2023-03-02T17:36:54.303Z,8.63
2023-03-02T17:38:56.301Z,7.00
2023-03-02T17:41:06.683Z,10.93
2023-03-02T17:43:09.404Z,8.77
2023-03-02T17:45:25.130Z,10.03
2023-03-02T17:47:26.913Z,8.10
2023-03-02T17:49:28.683Z,9.60
2023-03-02T17:51:30.396Z,10.40
2023-03-02T17:53:32.303Z,9.27
2023-03-02T17:55:34.406Z,9.53
2023-03-02T17:57:38.492Z,9.50
2023-03-02T17:59:40.189Z,9.90
2023-03-02T18:01:43.936Z,8.93
2023-03-02T18:03:45.826Z,8.93
2023-03-02T18:05:47.738Z,11.73
2023-03-02T18:07:50.583Z,9.03
2023-03-02T18:09:54.631Z,8.90
2023-03-02T18:11:59.925Z,10.37
2023-03-02T18:14:01.711Z,9.77
2023-03-02T18:16:03.652Z,9.30
2023-03-02T18:18:05.995Z,9.90
2023-03-02T18:20:08.513Z,9.67
2023-03-02T18:22:11.911Z,10.13
2023-03-02T18:24:13.773Z,10.07
2023-03-02T18:26:15.739Z,8.77
2023-03-02T18:28:18.771Z,9.73
2023-03-02T18:30:22.252Z,9.70
2023-03-02T18:32:24.751Z,10.03
2023-03-02T18:34:28.808Z,8.63
2023-03-02T18:36:33.447Z,9.23
2023-03-02T18:38:36.338Z,10.10
2023-03-02T18:40:38.243Z,9.93
2023-03-02T18:42:39.982Z,10.10
2023-03-02T18:44:42.029Z,8.33
2023-03-02T18:46:43.757Z,9.57
2023-03-02T18:48:45.440Z,11.10
2023-03-02T18:50:49.873Z,10.73
2023-03-02T18:52:52.820Z,11.13
2023-03-02T18:54:57.660Z,9.07
2023-03-02T18:57:01.150Z,11.07
2023-03-02T18:59:05.645Z,13.63
2023-03-02T19:01:07.843Z,11.13
2023-03-02T19:03:09.625Z,11.73
2023-03-02T19:05:15.999Z,13.47
2023-03-02T19:07:18.193Z,12.03
2023-03-02T19:09:19.956Z,11.67
2023-03-02T19:11:22.032Z,13.70
2023-03-02T19:13:24.372Z,11.93
2023-03-02T19:15:28.231Z,10.90
2023-03-02T19:17:29.988Z,11.87
2023-03-02T19:19:32.035Z,11.83
2023-03-02T19:21:33.893Z,12.37
2023-03-02T19:23:35.692Z,11.37
2023-03-02T19:25:37.491Z,11.90
2023-03-02T19:27:41.669Z,11.67
2023-03-02T19:29:43.329Z,11.00
2023-03-02T19:31:45.183Z,12.30
2023-03-02T19:33:49.145Z,15.07
2023-03-02T19:35:54.365Z,12.27
2023-03-02T19:37:56.692Z,11.70
2023-03-02T19:39:58.515Z,12.70
2023-03-02T19:42:00.343Z,12.17
2023-03-02T19:44:02.061Z,12.40
2023-03-02T19:46:04.789Z,13.70
2023-03-02T19:48:13.641Z,12.90
2023-03-02T19:50:16.635Z,10.57
2023-03-02T19:52:22.076Z,11.60
2023-03-02T19:54:23.946Z,13.87
2023-03-02T19:56:30.248Z,11.90
2023-03-02T19:58:33.134Z,10.00
2023-03-02T20:00:40.161Z,12.13
2023-03-02T20:02:44.987Z,13.30
2023-03-02T20:04:46.923Z,12.67
2023-03-02T20:06:48.704Z,12.93
2023-03-02T20:08:52.686Z,11.93
2023-03-02T20:10:54.549Z,11.33
2023-03-02T20:12:56.239Z,11.07
2023-03-02T20:14:58.016Z,11.30
2023-03-02T20:17:00.658Z,9.57
2023-03-02T20:19:04.162Z,10.37
2023-03-02T20:21:07.648Z,11.17
2023-03-02T20:23:09.339Z,11.03
2023-03-02T20:25:15.283Z,12.97
2023-03-02T20:27:21.107Z,11.70
2023-03-02T20:29:22.825Z,12.57
2023-03-02T20:31:25.553Z,11.50
2023-03-02T20:33:34.569Z,11.03
2023-03-02T20:35:40.990Z,10.63
2023-03-02T20:37:44.623Z,12.57
2023-03-02T20:39:49.484Z,12.33
2023-03-02T20:41:52.002Z,11.07
2023-03-02T20:43:53.792Z,12.00
2023-03-02T20:45:58.761Z,12.47
2023-03-02T20:48:00.869Z,10.97
2023-03-02T20:50:03.756Z,10.70
2023-03-02T20:52:06.058Z,9.60
2023-03-02T20:54:08.222Z,11.67
2023-03-02T20:56:14.458Z,10.20
2023-03-02T20:58:16.269Z,10.90
2023-03-02T21:00:22.561Z,10.47
2023-03-02T21:02:24.296Z,11.20
2023-03-02T21:04:27.011Z,11.27
2023-03-02T21:06:29.630Z,11.03
2023-03-02T21:08:34.169Z,9.30
2023-03-02T21:10:38.004Z,11.33
2023-03-02T21:12:43.285Z,10.53
2023-03-02T21:14:46.134Z,12.37
2023-03-02T21:16:47.913Z,10.53
2023-03-02T21:18:52.817Z,12.13
2023-03-02T21:20:54.549Z,10.23
2023-03-02T21:23:01.047Z,10.50
2023-03-02T21:25:02.990Z,10.63
2023-03-02T21:27:07.122Z,9.50
2023-03-02T21:29:09.372Z,10.43
2023-03-02T21:31:12.712Z,9.30
2023-03-02T21:33:14.522Z,11.63
2023-03-02T21:35:21.120Z,11.27
2023-03-02T21:37:22.893Z,10.13
2023-03-02T21:39:24.687Z,9.37
2023-03-02T21:41:28.480Z,10.27
2023-03-02T21:43:30.204Z,10.00
2023-03-02T21:45:32.813Z,10.77
2023-03-02T21:47:36.083Z,10.70
2023-03-02T21:49:37.783Z,9.23
2023-03-02T21:51:39.528Z,10.03
2023-03-02T21:53:44.275Z,10.87
2023-03-02T21:55:47.675Z,11.30
2023-03-02T21:57:49.409Z,9.33
2023-03-02T21:59:51.058Z,10.20
2023-03-02T22:01:52.805Z,9.10
2023-03-02T22:03:57.136Z,10.47
2023-03-02T22:05:58.884Z,10.77
2023-03-02T22:08:03.691Z,10.33
2023-03-02T22:10:06.208Z,10.80
2023-03-02T22:12:22.725Z,10.53
2023-03-02T22:14:24.666Z,14.53
2023-03-02T22:16:32.750Z,11.27
2023-03-02T22:18:36.250Z,11.77
2023-03-02T22:20:40.336Z,10.40
2023-03-02T22:22:42.156Z,11.83
2023-03-02T22:24:48.708Z,10.97
2023-03-02T22:27:02.304Z,9.57
2023-03-02T22:29:17.472Z,11.10
2023-03-02T22:31:21.464Z,10.27
2023-03-02T22:33:26.120Z,11.23
2023-03-02T22:35:27.878Z,11.57
2023-03-02T22:37:34.330Z,12.30
2023-03-02T22:39:36.074Z,11.37
2023-03-02T22:41:37.754Z,10.33
2023-03-02T22:43:40.292Z,10.63
2023-03-02T22:45:42.494Z,10.40
2023-03-02T22:47:47.209Z,11.40
2023-03-02T22:49:57.498Z,9.80
2023-03-02T22:52:24.420Z,10.20
2023-03-02T22:54:37.181Z,8.97
2023-03-02T22:56:45.362Z,11.10
2023-03-02T22:58:53.985Z,10.43
2023-03-02T23:01:00.235Z,10.27
2023-03-02T23:03:01.962Z,9.80
2023-03-02T23:05:24.736Z,12.17
2023-03-02T23:07:28.054Z,12.60
2023-03-02T23:09:32.985Z,9.97
2023-03-02T23:11:38.615Z,10.07
2023-03-02T23:13:40.637Z,11.43
2023-03-02T23:15:42.427Z,12.07
2023-03-02T23:17:46.278Z,9.60
2023-03-02T23:19:50.464Z,9.67
2023-03-02T23:21:54.490Z,10.07
2023-03-02T23:23:56.324Z,7.97
2023-03-02T23:25:58.064Z,11.30
2023-03-02T23:27:59.788Z,9.43
2023-03-02T23:30:01.795Z,8.87
2023-03-02T23:32:03.834Z,10.20
2023-03-02T23:34:05.750Z,10.13
2023-03-02T23:36:08.034Z,9.30
2023-03-02T23:38:11.592Z,9.20
2023-03-02T23:40:13.531Z,8.53
2023-03-02T23:42:15.174Z,9.23
2023-03-02T23:44:17.484Z,8.77
2023-03-02T23:46:19.277Z,8.33
2023-03-02T23:48:21.017Z,9.43
2023-03-02T23:50:22.705Z,8.50
2023-03-02T23:52:24.475Z,9.73
2023-03-02T23:54:28.333Z,9.60
2023-03-02T23:56:32.822Z,9.00
2023-03-02T23:58:34.671Z,8.80
